Turpin, Oklahoma
Current Conditions -  °F | °C
As of 4:15 PM on Friday 31 Oct 2014 (Local Time) from KLBL Reporting Station
Clear Clear  
Wind Chill: 54°   Ceiling: Unl
Heat Index: 54°   Visibility: 10mi
Dew Point: 25°   Wind: 10mph
Humidity: 33%   Direction: 110°ESE
Pressure: 30.38"   Gusts: NA
Location:  36.87°N, 100.88°W
Report Text: KLBL 312115Z AUTO 11009KT 10SM CLR 12/M04 A3038 RMK AO1
Loading
Personal Weather Stations






























Interactive Weather Map
Tropical Storm Tracking
New forecast layout! Learn more

10-Day Weather Forecast

Advertisements
Track Severe Weather on mobile